Time;durP1;ratioP1;P1;durP2;ratioP2;P2;SDS_P1;SDS_P2;PMS_P1;PMS_P2;Temp;Humidity;BMP_temperature;BMP_pressure;BME280_temperature;BME280_humidity;BME280_pressure;Samples;Min_cycle;Max_cycle;Signal;HPM_P1;HPM_P2
2024/02/03 00:02:00;;;;;;;0.60;0.55;;;;;;;;;;5086972;28;20043;-88
2024/02/03 00:04:26;;;;;;;0.20;0.10;;;;;;;;;;5099160;27;20462;-86
2024/02/03 00:06:52;;;;;;;0.20;0.13;;;;;;;;;;5088913;28;20051;-84
2024/02/03 00:09:24;;;;;;;0.20;0.10;;;;;;;;;;5099832;28;20070;-86
2024/02/03 00:11:53;;;;;;;0.85;0.52;;;;;;;;;;5085539;28;20048;-87
2024/02/03 00:14:19;;;;;;;0.20;0.13;;;;;;;;;;5099515;27;20067;-86
2024/02/03 00:16:45;;;;;;;0.20;0.10;;;;;;;;;;5075978;28;20427;-85
2024/02/03 00:19:11;;;;;;;0.38;0.10;;;;;;;;;;5085573;28;20507;-85
2024/02/03 00:21:37;;;;;;;1.85;0.52;;;;;;;;;;5100236;28;20046;-84
2024/02/03 00:24:03;;;;;;;0.20;0.10;;;;;;;;;;5102126;27;20051;-86
2024/02/03 00:26:29;;;;;;;0.20;0.10;;;;;;;;;;5083572;28;20114;-84
2024/02/03 00:28:55;;;;;;;0.20;0.10;;;;;;;;;;5103741;28;20065;-86
2024/02/03 00:31:21;;;;;;;0.68;0.40;;;;;;;;;;5079784;28;20048;-86
2024/02/03 00:34:05;;;;;;;0.38;0.32;;;;;;;;;;5084114;28;20060;-87
2024/02/03 00:36:37;;;;;;;1.65;1.20;;;;;;;;;;5084154;28;20081;-85
2024/02/03 00:39:16;;;;;;;0.20;0.10;;;;;;;;;;5088711;27;20036;-86
2024/02/03 00:41:48;;;;;;;0.20;0.10;;;;;;;;;;5103378;28;20047;-88
2024/02/03 00:44:23;;;;;;;0.20;0.10;;;;;;;;;;5085105;28;20471;-87
2024/02/03 00:46:52;;;;;;;0.20;0.17;;;;;;;;;;5086884;28;20127;-84
2024/02/03 00:49:21;;;;;;;2.28;1.00;;;;;;;;;;5086368;28;20043;-86
2024/02/03 00:51:47;;;;;;;0.20;0.17;;;;;;;;;;5093921;28;20039;-88
2024/02/03 00:54:13;;;;;;;2.75;0.75;;;;;;;;;;5095348;28;20418;-86
2024/02/03 00:56:39;;;;;;;0.93;0.20;;;;;;;;;;5098152;28;20043;-86
2024/02/03 00:59:07;;;;;;;0.20;0.10;;;;;;;;;;5079909;28;20547;-86
2024/02/03 01:01:36;;;;;;;0.20;0.10;;;;;;;;;;5081625;28;20036;-87
2024/02/03 01:04:03;;;;;;;0.20;0.00;;;;;;;;;;5082474;28;20058;-85
2024/02/03 01:06:34;;;;;;;0.20;0.10;;;;;;;;;;5099797;28;20050;-86
2024/02/03 01:09:17;;;;;;;0.20;0.15;;;;;;;;;;5097654;27;20110;-87
2024/02/03 01:11:49;;;;;;;0.40;0.40;;;;;;;;;;5101730;28;21198;-86
2024/02/03 01:14:15;;;;;;;0.20;0.10;;;;;;;;;;5095459;28;20399;-85
2024/02/03 01:16:43;;;;;;;0.77;0.55;;;;;;;;;;5097215;28;20040;-85
2024/02/03 01:19:15;;;;;;;0.60;0.55;;;;;;;;;;5098637;28;20054;-87
2024/02/03 01:21:41;;;;;;;0.20;0.10;;;;;;;;;;5085859;28;21028;-84
2024/02/03 01:24:07;;;;;;;0.20;0.10;;;;;;;;;;5086338;28;20084;-86
2024/02/03 01:26:47;;;;;;;0.20;0.10;;;;;;;;;;5098145;28;20043;-84
2024/02/03 01:29:30;;;;;;;0.20;0.10;;;;;;;;;;5085659;28;20765;-86
2024/02/03 01:32:00;;;;;;;0.20;0.10;;;;;;;;;;5085361;28;20044;-86
2024/02/03 01:34:29;;;;;;;0.20;0.10;;;;;;;;;;5096866;27;20043;-86
2024/02/03 01:36:55;;;;;;;0.35;0.30;;;;;;;;;;5088077;28;20048;-85
2024/02/03 01:39:23;;;;;;;0.28;0.28;;;;;;;;;;5101273;28;20255;-83
2024/02/03 01:41:50;;;;;;;0.20;0.00;;;;;;;;;;5100605;28;20538;-85
2024/02/03 01:44:16;;;;;;;0.20;0.13;;;;;;;;;;5099744;27;20578;-87
2024/02/03 01:46:45;;;;;;;0.20;0.00;;;;;;;;;;5084111;28;21327;-87
2024/02/03 01:49:14;;;;;;;0.20;0.10;;;;;;;;;;5080731;28;20071;-85
2024/02/03 01:51:40;;;;;;;0.20;0.00;;;;;;;;;;5087389;28;20035;-85
2024/02/03 01:54:06;;;;;;;0.20;0.00;;;;;;;;;;5097226;28;20123;-84
2024/02/03 01:56:34;;;;;;;0.30;0.20;;;;;;;;;;5099752;28;20534;-87
2024/02/03 01:59:17;;;;;;;0.20;0.10;;;;;;;;;;5083625;28;20047;-87
2024/02/03 02:01:46;;;;;;;0.20;0.10;;;;;;;;;;5099346;28;20416;-86
2024/02/03 02:04:15;;;;;;;0.20;0.10;;;;;;;;;;5097941;27;20036;-86
2024/02/03 02:06:47;;;;;;;0.20;0.10;;;;;;;;;;5100598;27;20034;-86
2024/02/03 02:09:23;;;;;;;0.20;0.00;;;;;;;;;;5085015;28;20457;-89
2024/02/03 02:11:52;;;;;;;0.20;0.00;;;;;;;;;;5100643;28;20043;-87
2024/02/03 02:14:26;;;;;;;0.57;0.55;;;;;;;;;;5087296;28;20043;-89
2024/02/03 02:16:52;;;;;;;0.20;0.10;;;;;;;;;;5099645;28;20031;-86
2024/02/03 02:19:22;;;;;;;0.20;0.00;;;;;;;;;;5084273;28;20070;-89
2024/02/03 02:21:48;;;;;;;0.20;0.03;;;;;;;;;;5104111;28;20175;-87
2024/02/03 02:24:14;;;;;;;0.20;0.10;;;;;;;;;;5087957;22;20543;-83
2024/02/03 02:26:40;;;;;;;0.20;0.10;;;;;;;;;;5038264;28;20044;-84
2024/02/03 02:29:06;;;;;;;0.20;0.00;;;;;;;;;;5043543;28;20037;-86
2024/02/03 02:31:32;;;;;;;1.80;0.60;;;;;;;;;;5043055;28;20082;-84
2024/02/03 02:33:58;;;;;;;1.55;1.45;;;;;;;;;;5042383;28;20048;-84
2024/02/03 02:36:24;;;;;;;0.20;0.10;;;;;;;;;;5035468;28;20080;-83
2024/02/03 02:38:50;;;;;;;0.20;0.10;;;;;;;;;;5058107;28;20032;-85
2024/02/03 02:41:16;;;;;;;3.55;0.68;;;;;;;;;;5029425;28;20052;-84
2024/02/03 02:43:42;;;;;;;0.30;0.25;;;;;;;;;;5053199;28;20040;-85
2024/02/03 02:46:09;;;;;;;0.20;0.08;;;;;;;;;;5056821;28;20119;-83
2024/02/03 02:48:35;;;;;;;0.20;0.10;;;;;;;;;;5040299;28;20482;-81
2024/02/03 02:51:01;;;;;;;0.20;0.00;;;;;;;;;;5041327;28;20075;-84
2024/02/03 02:53:27;;;;;;;0.20;0.10;;;;;;;;;;5042423;28;20039;-85
2024/02/03 02:55:53;;;;;;;1.65;0.73;;;;;;;;;;5058484;28;20457;-85
2024/02/03 02:58:20;;;;;;;0.20;0.10;;;;;;;;;;5042604;28;20463;-86
2024/02/03 03:00:52;;;;;;;0.30;0.25;;;;;;;;;;5056042;28;20052;-87
2024/02/03 03:03:18;;;;;;;0.20;0.10;;;;;;;;;;5043975;28;20037;-85
2024/02/03 03:05:44;;;;;;;0.20;0.10;;;;;;;;;;5045000;28;20507;-85
2024/02/03 03:08:10;;;;;;;0.20;0.10;;;;;;;;;;5039068;28;20408;-84
2024/02/03 03:10:36;;;;;;;0.20;0.10;;;;;;;;;;5052482;28;20047;-86
2024/02/03 03:13:05;;;;;;;0.20;0.10;;;;;;;;;;5042658;28;20032;-84
2024/02/03 03:15:31;;;;;;;0.20;0.10;;;;;;;;;;5053426;28;20045;-86
2024/02/03 03:17:57;;;;;;;0.20;0.10;;;;;;;;;;5041284;28;20509;-86
2024/02/03 03:20:23;;;;;;;0.20;0.00;;;;;;;;;;5036743;28;20040;-87
2024/02/03 03:22:49;;;;;;;0.20;0.10;;;;;;;;;;5034952;28;20048;-85
2024/02/03 03:25:15;;;;;;;0.20;0.10;;;;;;;;;;5031557;28;20485;-84
2024/02/03 03:27:42;;;;;;;0.20;0.10;;;;;;;;;;5054865;28;20036;-84
2024/02/03 03:30:11;;;;;;;0.20;0.00;;;;;;;;;;5057046;28;20041;-82
2024/02/03 03:32:38;;;;;;;0.20;0.00;;;;;;;;;;5054672;28;20040;-85
2024/02/03 03:35:07;;;;;;;0.20;0.10;;;;;;;;;;5038135;28;20141;-81
2024/02/03 03:37:33;;;;;;;0.20;0.00;;;;;;;;;;5036696;28;20051;-85
2024/02/03 03:39:59;;;;;;;0.75;0.75;;;;;;;;;;5053065;28;20056;-84
2024/02/03 03:42:25;;;;;;;0.68;0.55;;;;;;;;;;5053941;28;20045;-83
2024/02/03 03:44:51;;;;;;;0.20;0.10;;;;;;;;;;5040637;28;20068;-83
2024/02/03 03:47:19;;;;;;;0.20;0.00;;;;;;;;;;5039289;28;20052;-83
2024/02/03 03:49:45;;;;;;;0.20;0.10;;;;;;;;;;5033241;28;20497;-83
2024/02/03 03:52:11;;;;;;;0.20;0.10;;;;;;;;;;5042003;28;20528;-84
2024/02/03 03:54:37;;;;;;;0.20;0.10;;;;;;;;;;5059198;28;20037;-83
2024/02/03 03:57:03;;;;;;;0.20;0.00;;;;;;;;;;5041031;28;20033;-83
2024/02/03 03:59:29;;;;;;;0.20;0.10;;;;;;;;;;5058786;28;20068;-87
2024/02/03 04:01:55;;;;;;;0.52;0.30;;;;;;;;;;5055899;28;20051;-84
2024/02/03 04:04:21;;;;;;;0.25;0.10;;;;;;;;;;5044764;28;20040;-84
2024/02/03 04:06:47;;;;;;;0.20;0.10;;;;;;;;;;5038605;28;20103;-84
2024/02/03 04:09:15;;;;;;;0.68;0.38;;;;;;;;;;5062159;28;20041;-87
2024/02/03 04:11:41;;;;;;;0.45;0.40;;;;;;;;;;5041456;28;20039;-83
2024/02/03 04:14:15;;;;;;;0.20;0.10;;;;;;;;;;5038506;28;20120;-87
2024/02/03 04:16:42;;;;;;;0.20;0.10;;;;;;;;;;5038921;28;20082;-84
2024/02/03 04:19:08;;;;;;;0.20;0.15;;;;;;;;;;5062221;28;20051;-83
2024/02/03 04:21:34;;;;;;;0.20;0.10;;;;;;;;;;5052920;28;20051;-83
2024/02/03 04:24:00;;;;;;;0.20;0.20;;;;;;;;;;5056446;28;20548;-83
2024/02/03 04:26:26;;;;;;;0.38;0.38;;;;;;;;;;5029533;28;20033;-84
2024/02/03 04:28:52;;;;;;;0.20;0.10;;;;;;;;;;5054008;28;22074;-88
2024/02/03 04:31:18;;;;;;;0.20;0.10;;;;;;;;;;5054315;28;20045;-85
2024/02/03 04:33:44;;;;;;;0.20;0.08;;;;;;;;;;5036064;28;20132;-84
2024/02/03 04:36:10;;;;;;;0.40;0.25;;;;;;;;;;5057475;28;20467;-83
2024/02/03 04:38:37;;;;;;;0.20;0.10;;;;;;;;;;5056655;28;20447;-84
2024/02/03 04:41:03;;;;;;;0.20;0.10;;;;;;;;;;5059120;28;20067;-84
2024/02/03 04:43:29;;;;;;;0.20;0.10;;;;;;;;;;5056126;28;20093;-85
2024/02/03 04:45:55;;;;;;;0.20;0.08;;;;;;;;;;5032591;28;20033;-81
2024/02/03 04:48:21;;;;;;;0.20;0.10;;;;;;;;;;5054047;28;20121;-87
2024/02/03 04:50:47;;;;;;;0.20;0.10;;;;;;;;;;5053857;28;20505;-85
2024/02/03 04:53:13;;;;;;;0.20;0.10;;;;;;;;;;5045378;28;20074;-87
2024/02/03 04:55:39;;;;;;;0.20;0.20;;;;;;;;;;5035130;28;20508;-86
2024/02/03 04:58:07;;;;;;;0.20;0.10;;;;;;;;;;5053445;28;20037;-81
2024/02/03 05:00:33;;;;;;;0.20;0.10;;;;;;;;;;5058350;28;20070;-85
2024/02/03 05:02:59;;;;;;;0.20;0.10;;;;;;;;;;5044248;28;20503;-82
2024/02/03 05:05:26;;;;;;;0.22;0.20;;;;;;;;;;5034287;28;20115;-83
2024/02/03 05:07:52;;;;;;;0.30;0.20;;;;;;;;;;5041399;28;20059;-83
2024/02/03 05:10:18;;;;;;;0.20;0.15;;;;;;;;;;5040315;28;20036;-84
2024/02/03 05:12:44;;;;;;;0.20;0.00;;;;;;;;;;5031835;28;20237;-84
2024/02/03 05:15:10;;;;;;;0.20;0.10;;;;;;;;;;5055777;28;20150;-83
2024/02/03 05:17:36;;;;;;;0.20;0.10;;;;;;;;;;5033292;28;20033;-86
2024/02/03 05:20:05;;;;;;;0.20;0.10;;;;;;;;;;5040034;28;20041;-84
2024/02/03 05:22:31;;;;;;;0.20;0.20;;;;;;;;;;5041631;28;20206;-85
2024/02/03 05:24:57;;;;;;;0.20;0.10;;;;;;;;;;5047065;28;20048;-82
2024/02/03 05:27:23;;;;;;;0.20;0.08;;;;;;;;;;5039980;28;20137;-85
2024/02/03 05:29:49;;;;;;;0.20;0.10;;;;;;;;;;5054197;28;20040;-85
2024/02/03 05:32:15;;;;;;;0.20;0.10;;;;;;;;;;5055877;28;20036;-83
2024/02/03 05:34:41;;;;;;;0.20;0.00;;;;;;;;;;5042459;28;20374;-82
2024/02/03 05:37:07;;;;;;;0.20;0.00;;;;;;;;;;5038520;28;20087;-86
2024/02/03 05:39:33;;;;;;;0.20;0.05;;;;;;;;;;5041300;28;20545;-86
2024/02/03 05:41:59;;;;;;;0.20;0.10;;;;;;;;;;5034562;28;20123;-84
2024/02/03 05:44:26;;;;;;;0.20;0.00;;;;;;;;;;5039374;28;20095;-84
2024/02/03 05:46:52;;;;;;;0.20;0.10;;;;;;;;;;5052363;28;20045;-82
2024/02/03 05:49:17;;;;;;;0.20;0.10;;;;;;;;;;5058558;28;20047;-84
2024/02/03 05:51:44;;;;;;;0.20;0.10;;;;;;;;;;5040561;28;20045;-84
2024/02/03 05:54:10;;;;;;;0.20;0.00;;;;;;;;;;5031605;28;20615;-83
2024/02/03 05:56:37;;;;;;;0.20;0.10;;;;;;;;;;5053075;28;20033;-86
2024/02/03 05:59:03;;;;;;;0.20;0.10;;;;;;;;;;5037001;28;20116;-87
2024/02/03 06:01:29;;;;;;;0.30;0.25;;;;;;;;;;5044789;28;20076;-84
2024/02/03 06:03:55;;;;;;;0.20;0.00;;;;;;;;;;5044862;28;20120;-83
2024/02/03 06:06:22;;;;;;;0.40;0.20;;;;;;;;;;5048137;28;20134;-86
2024/02/03 06:08:48;;;;;;;0.20;0.10;;;;;;;;;;5034369;28;20118;-86
2024/02/03 06:11:19;;;;;;;0.20;0.10;;;;;;;;;;5059671;28;20036;-87
2024/02/03 06:13:45;;;;;;;0.20;0.10;;;;;;;;;;5055751;28;20043;-84
2024/02/03 06:16:11;;;;;;;0.20;0.10;;;;;;;;;;5038256;28;20129;-83
2024/02/03 06:18:43;;;;;;;0.20;0.10;;;;;;;;;;5072322;28;20052;-85
2024/02/03 06:21:12;;;;;;;0.20;0.10;;;;;;;;;;5059859;28;20048;-88
2024/02/03 06:23:38;;;;;;;0.20;0.10;;;;;;;;;;5046918;28;20100;-86
2024/02/03 06:26:04;;;;;;;0.20;0.10;;;;;;;;;;5041513;28;20131;-89
2024/02/03 06:28:33;;;;;;;0.28;0.17;;;;;;;;;;5046797;28;20122;-84
2024/02/03 06:30:59;;;;;;;0.20;0.00;;;;;;;;;;5046236;28;20037;-84
2024/02/03 06:33:25;;;;;;;0.22;0.20;;;;;;;;;;5050201;28;20415;-83
2024/02/03 06:35:53;;;;;;;0.20;0.00;;;;;;;;;;5062348;28;20046;-83
2024/02/03 06:38:19;;;;;;;0.30;0.20;;;;;;;;;;5038473;28;20052;-85
2024/02/03 06:40:45;;;;;;;0.20;0.10;;;;;;;;;;5045428;28;20048;-86
2024/02/03 06:43:11;;;;;;;0.20;0.10;;;;;;;;;;5035235;28;20048;-83
2024/02/03 06:45:37;;;;;;;0.20;0.00;;;;;;;;;;5035125;28;20044;-83
2024/02/03 06:48:03;;;;;;;0.20;0.10;;;;;;;;;;5043394;28;20051;-83
2024/02/03 06:50:30;;;;;;;0.20;0.10;;;;;;;;;;5042112;28;20063;-85
2024/02/03 06:52:56;;;;;;;0.20;0.00;;;;;;;;;;5048592;28;20028;-87
2024/02/03 06:55:23;;;;;;;0.20;0.10;;;;;;;;;;5047095;28;20114;-86
2024/02/03 06:57:49;;;;;;;0.20;0.00;;;;;;;;;;5043695;28;20036;-83
2024/02/03 07:00:15;;;;;;;0.20;0.00;;;;;;;;;;5045162;28;20040;-85
2024/02/03 07:02:44;;;;;;;0.20;0.10;;;;;;;;;;5062521;28;20064;-84
2024/02/03 07:05:10;;;;;;;0.20;0.10;;;;;;;;;;5048329;28;20416;-84
2024/02/03 07:07:36;;;;;;;0.20;0.00;;;;;;;;;;5043550;28;20078;-84
2024/02/03 07:10:02;;;;;;;0.20;0.10;;;;;;;;;;5038936;28;20068;-82
2024/02/03 07:12:28;;;;;;;0.20;0.20;;;;;;;;;;5062411;28;20068;-84
2024/02/03 07:14:54;;;;;;;0.20;0.10;;;;;;;;;;5040101;28;20412;-85
2024/02/03 07:17:21;;;;;;;0.20;0.10;;;;;;;;;;5062402;28;20608;-83
2024/02/03 07:19:49;;;;;;;0.45;0.45;;;;;;;;;;5053654;28;20087;-82
2024/02/03 07:22:19;;;;;;;0.20;0.20;;;;;;;;;;5052190;28;20055;-82
2024/02/03 07:24:45;;;;;;;0.20;0.13;;;;;;;;;;5060660;28;20048;-80
2024/02/03 07:27:11;;;;;;;0.20;0.10;;;;;;;;;;5045280;28;20445;-82
2024/02/03 07:29:38;;;;;;;0.20;0.10;;;;;;;;;;5045648;28;20633;-83
2024/02/03 07:32:05;;;;;;;0.52;0.10;;;;;;;;;;5041163;28;20036;-85
2024/02/03 07:34:31;;;;;;;0.30;0.20;;;;;;;;;;5053164;28;20041;-85
2024/02/03 07:36:57;;;;;;;0.20;0.13;;;;;;;;;;5035206;28;20119;-79
2024/02/03 07:39:23;;;;;;;0.20;0.10;;;;;;;;;;5036819;28;20056;-86
2024/02/03 07:41:49;;;;;;;0.20;0.00;;;;;;;;;;5044446;28;20045;-84
2024/02/03 07:44:15;;;;;;;0.20;0.03;;;;;;;;;;5061186;28;20095;-85
2024/02/03 07:46:41;;;;;;;0.20;0.00;;;;;;;;;;5037142;28;20051;-82
2024/02/03 07:49:07;;;;;;;1.58;1.48;;;;;;;;;;5030946;28;20045;-83
2024/02/03 07:51:33;;;;;;;0.30;0.20;;;;;;;;;;5039234;28;20117;-83
2024/02/03 07:53:59;;;;;;;0.20;0.10;;;;;;;;;;5054156;28;20087;-84
2024/02/03 07:56:28;;;;;;;0.20;0.20;;;;;;;;;;5051164;28;20033;-86
2024/02/03 07:58:55;;;;;;;0.20;0.20;;;;;;;;;;5031515;28;20163;-82
2024/02/03 08:01:21;;;;;;;0.20;0.10;;;;;;;;;;5057271;28;20062;-81
2024/02/03 08:03:53;;;;;;;0.20;0.10;;;;;;;;;;5039275;28;20036;-84
2024/02/03 08:06:19;;;;;;;0.20;0.10;;;;;;;;;;5056576;28;20127;-83
2024/02/03 08:08:48;;;;;;;0.20;0.10;;;;;;;;;;5042893;28;20178;-86
2024/02/03 08:11:14;;;;;;;0.20;0.05;;;;;;;;;;5038351;28;20120;-84
2024/02/03 08:13:40;;;;;;;0.20;0.10;;;;;;;;;;5049688;28;20136;-83
2024/02/03 08:16:06;;;;;;;0.20;0.10;;;;;;;;;;5045683;28;20033;-86
2024/02/03 08:18:32;;;;;;;0.20;0.00;;;;;;;;;;5040596;28;20060;-83
2024/02/03 08:20:58;;;;;;;0.20;0.00;;;;;;;;;;5049515;28;20670;-83
2024/02/03 08:23:24;;;;;;;0.20;0.10;;;;;;;;;;5049980;28;20052;-85
2024/02/03 08:25:57;;;;;;;0.20;0.10;;;;;;;;;;5057956;22;20602;-84
2024/02/03 08:28:23;;;;;;;0.20;0.10;;;;;;;;;;5031657;28;20061;-85
2024/02/03 08:30:59;;;;;;;0.20;0.10;;;;;;;;;;5034757;28;20033;-83
2024/02/03 08:33:28;;;;;;;0.52;0.52;;;;;;;;;;5035246;28;20075;-84
2024/02/03 08:35:54;;;;;;;0.20;0.10;;;;;;;;;;5046032;28;20052;-85
2024/02/03 08:38:20;;;;;;;0.20;0.10;;;;;;;;;;5050768;28;20044;-84
2024/02/03 08:40:46;;;;;;;0.30;0.30;;;;;;;;;;5056566;28;20045;-85
2024/02/03 08:43:15;;;;;;;0.28;0.20;;;;;;;;;;5056553;28;20413;-82
2024/02/03 08:45:44;;;;;;;0.20;0.00;;;;;;;;;;5029473;28;20048;-82
2024/02/03 08:48:21;;;;;;;1.40;0.43;;;;;;;;;;5033276;28;20083;-83
2024/02/03 08:50:47;;;;;;;0.20;0.10;;;;;;;;;;5062726;28;20051;-82
2024/02/03 08:53:19;;;;;;;0.20;0.10;;;;;;;;;;5047412;28;20043;-87
2024/02/03 08:55:45;;;;;;;0.20;0.07;;;;;;;;;;5045664;28;20048;-84
2024/02/03 08:58:17;;;;;;;0.43;0.32;;;;;;;;;;5025334;28;20068;-83
2024/02/03 09:00:48;;;;;;;0.20;0.00;;;;;;;;;;5044365;28;20130;-82
2024/02/03 09:03:14;;;;;;;0.20;0.00;;;;;;;;;;5062687;28;21224;-85
2024/02/03 09:05:40;;;;;;;0.20;0.10;;;;;;;;;;5047173;28;20128;-84
2024/02/03 09:08:15;;;;;;;0.20;0.00;;;;;;;;;;5064290;28;20049;-86
2024/02/03 09:10:44;;;;;;;0.20;0.00;;;;;;;;;;5044590;28;20473;-86
2024/02/03 09:13:10;;;;;;;0.20;0.10;;;;;;;;;;5044849;28;20037;-85
2024/02/03 09:15:38;;;;;;;0.20;0.10;;;;;;;;;;5064378;28;20065;-84
2024/02/03 09:18:04;;;;;;;0.20;0.00;;;;;;;;;;5061245;28;20102;-85
2024/02/03 09:20:31;;;;;;;0.20;0.13;;;;;;;;;;5063819;28;20106;-83
2024/02/03 09:22:57;;;;;;;0.20;0.00;;;;;;;;;;5042270;28;20045;-85
2024/02/03 09:25:23;;;;;;;0.20;0.10;;;;;;;;;;5046747;28;20048;-83
2024/02/03 09:27:51;;;;;;;0.32;0.32;;;;;;;;;;5049338;28;20124;-81
2024/02/03 09:30:21;;;;;;;0.38;0.32;;;;;;;;;;5029977;28;21619;-83
2024/02/03 09:32:46;;;;;;;1.35;1.25;;;;;;;;;;5044905;28;20041;-82
2024/02/03 09:35:13;;;;;;;1.20;0.65;;;;;;;;;;5042888;28;20592;-82
2024/02/03 09:37:39;;;;;;;0.20;0.10;;;;;;;;;;5050698;28;20028;-83
2024/02/03 09:40:06;;;;;;;0.20;0.10;;;;;;;;;;5046337;28;20056;-84
2024/02/03 09:42:33;;;;;;;0.20;0.10;;;;;;;;;;5046923;28;20169;-83
2024/02/03 09:45:03;;;;;;;0.20;0.10;;;;;;;;;;5042108;28;20053;-84
2024/02/03 09:47:32;;;;;;;0.20;0.10;;;;;;;;;;5059540;28;20037;-84
2024/02/03 09:50:02;;;;;;;0.20;0.08;;;;;;;;;;5065590;28;20033;-86
2024/02/03 09:52:30;;;;;;;0.20;0.00;;;;;;;;;;5046231;28;20048;-82
2024/02/03 09:54:59;;;;;;;0.40;0.30;;;;;;;;;;5049524;28;20047;-83
2024/02/03 09:57:25;;;;;;;0.20;0.10;;;;;;;;;;5045401;28;20036;-83
2024/02/03 09:59:52;;;;;;;0.20;0.10;;;;;;;;;;5060687;28;20933;-83
2024/02/03 10:02:20;;;;;;;0.20;0.00;;;;;;;;;;5028796;28;20488;-85
2024/02/03 10:04:48;;;;;;;0.20;0.08;;;;;;;;;;5047484;28;20044;-83
2024/02/03 10:07:21;;;;;;;0.20;0.17;;;;;;;;;;5052091;28;20044;-87
2024/02/03 10:09:51;;;;;;;0.20;0.10;;;;;;;;;;5047936;28;20037;-86
2024/02/03 10:12:18;;;;;;;2.58;1.45;;;;;;;;;;5064370;28;20049;-86
2024/02/03 10:14:58;;;;;;;0.38;0.38;;;;;;;;;;5050802;28;20500;-87
2024/02/03 10:17:27;;;;;;;0.20;0.00;;;;;;;;;;5046960;28;20040;-85
2024/02/03 10:19:53;;;;;;;0.20;0.10;;;;;;;;;;5028803;28;20442;-83
2024/02/03 10:22:36;;;;;;;0.20;0.10;;;;;;;;;;5054606;28;20136;-84
2024/02/03 10:25:09;;;;;;;0.20;0.10;;;;;;;;;;5063213;28;20130;-84
2024/02/03 10:27:35;;;;;;;;;;;;;;;;;;5066076;28;20044;-84
2024/02/03 10:30:01;;;;;;;0.20;0.00;;;;;;;;;;5033233;28;20388;-85
2024/02/03 10:32:33;;;;;;;0.20;0.00;;;;;;;;;;5049032;28;20045;-87
2024/02/03 10:34:59;;;;;;;0.20;0.10;;;;;;;;;;5064163;28;20130;-85
2024/02/03 10:37:31;;;;;;;0.20;0.10;;;;;;;;;;5047092;28;20064;-84
2024/02/03 10:39:57;;;;;;;0.20;0.10;;;;;;;;;;5046161;28;20126;-81
2024/02/03 10:42:25;;;;;;;0.20;0.10;;;;;;;;;;5051807;28;20044;-83
2024/02/03 10:45:00;;;;;;;0.20;0.00;;;;;;;;;;5048663;28;20489;-85
2024/02/03 10:47:26;;;;;;;0.20;0.00;;;;;;;;;;5049635;28;20404;-85
2024/02/03 10:49:57;;;;;;;0.20;0.10;;;;;;;;;;5046374;28;20040;-84
2024/02/03 10:52:24;;;;;;;0.20;0.10;;;;;;;;;;5050366;28;20129;-87
2024/02/03 10:54:53;;;;;;;0.20;0.10;;;;;;;;;;5066551;28;20039;-87
2024/02/03 10:57:24;;;;;;;0.20;0.00;;;;;;;;;;5046751;28;20041;-86
2024/02/03 10:59:52;;;;;;;0.20;0.00;;;;;;;;;;5036396;28;20497;-85
2024/02/03 11:02:21;;;;;;;0.20;0.00;;;;;;;;;;5047524;28;20555;-84
2024/02/03 11:04:53;;;;;;;0.20;0.10;;;;;;;;;;5048605;28;20076;-86
2024/02/03 11:07:26;;;;;;;0.20;0.15;;;;;;;;;;5046993;28;20060;-85
2024/02/03 11:10:05;;;;;;;0.20;0.10;;;;;;;;;;5031209;28;20059;-87
2024/02/03 11:12:36;;;;;;;0.20;0.10;;;;;;;;;;5045413;28;20100;-85
2024/02/03 11:15:03;;;;;;;0.20;0.10;;;;;;;;;;5049543;28;20422;-85
2024/02/03 11:17:35;;;;;;;0.20;0.03;;;;;;;;;;5031417;28;20071;-84
2024/02/03 11:20:06;;;;;;;;;;;;;;;;;;5027442;28;20111;-83
2024/02/03 11:22:32;;;;;;;0.20;0.00;;;;;;;;;;5060178;28;19921;-84
2024/02/03 11:24:58;;;;;;;0.20;0.00;;;;;;;;;;5064319;28;20041;-83
2024/02/03 11:27:30;;;;;;;0.20;0.00;;;;;;;;;;5045782;28;20049;-85
2024/02/03 11:30:03;;;;;;;0.20;0.00;;;;;;;;;;5046630;28;20067;-84
2024/02/03 11:32:35;;;;;;;0.20;0.10;;;;;;;;;;5048617;28;20108;-83
2024/02/03 11:35:07;;;;;;;0.20;0.00;;;;;;;;;;5028782;28;20029;-84
2024/02/03 11:37:39;;;;;;;0.20;0.10;;;;;;;;;;5048474;28;20049;-85
2024/02/03 11:40:09;;;;;;;0.43;0.30;;;;;;;;;;5049287;28;20102;-83
2024/02/03 11:42:41;;;;;;;0.30;0.30;;;;;;;;;;5049022;28;20072;-85
2024/02/03 11:45:09;;;;;;;;;;;;;;;;;;5033020;28;20553;-84
2024/02/03 11:47:38;;;;;;;0.20;0.00;;;;;;;;;;5028986;28;19924;-84
2024/02/03 11:50:07;;;;;;;0.30;0.30;;;;;;;;;;5061095;28;20124;-84
2024/02/03 11:52:33;;;;;;;0.20;0.05;;;;;;;;;;5043610;28;20136;-83
2024/02/03 11:54:59;;;;;;;0.20;0.03;;;;;;;;;;5040828;28;20106;-82
2024/02/03 11:57:26;;;;;;;0.20;0.00;;;;;;;;;;5026780;28;20514;-84
2024/02/03 12:00:02;;;;;;;0.20;0.00;;;;;;;;;;5045078;28;20554;-84
2024/02/03 12:02:31;;;;;;;0.20;0.00;;;;;;;;;;5029011;28;20041;-85
2024/02/03 12:05:00;;;;;;;0.20;0.10;;;;;;;;;;5024351;28;20041;-83
2024/02/03 12:07:33;;;;;;;0.20;0.00;;;;;;;;;;5027865;28;20099;-86
2024/02/03 12:10:09;;;;;;;0.20;0.10;;;;;;;;;;5042833;28;20306;-84
2024/02/03 12:12:35;;;;;;;0.20;0.00;;;;;;;;;;5046609;28;20049;-84
2024/02/03 12:15:07;;;;;;;0.20;0.00;;;;;;;;;;5046370;28;20036;-85
2024/02/03 12:17:34;;;;;;;0.20;0.10;;;;;;;;;;5042651;28;20111;-81
2024/02/03 12:20:00;;;;;;;0.20;0.10;;;;;;;;;;5041586;28;20489;-84
2024/02/03 12:22:30;;;;;;;0.20;0.10;;;;;;;;;;5060641;28;20048;-84
2024/02/03 12:24:59;;;;;;;0.28;0.10;;;;;;;;;;5038588;28;20099;-81
2024/02/03 12:27:25;;;;;;;0.25;0.13;;;;;;;;;;5021947;28;20053;-86
2024/02/03 12:29:51;;;;;;;0.20;0.10;;;;;;;;;;5041515;28;20040;-81
2024/02/03 12:32:17;;;;;;;0.20;0.00;;;;;;;;;;5060046;28;20056;-83
2024/02/03 12:34:43;;;;;;;0.20;0.00;;;;;;;;;;5044985;28;20037;-86
2024/02/03 12:37:15;;;;;;;0.75;0.30;;;;;;;;;;5060153;28;20037;-84
2024/02/03 12:39:50;;;;;;;0.20;0.10;;;;;;;;;;5043717;28;20068;-85
2024/02/03 12:42:19;;;;;;;0.20;0.00;;;;;;;;;;5058085;28;20085;-85
2024/02/03 12:44:47;;;;;;;0.20;0.10;;;;;;;;;;5025547;28;20045;-84
2024/02/03 12:47:16;;;;;;;0.20;0.00;;;;;;;;;;5059481;28;20041;-84
2024/02/03 12:49:48;;;;;;;0.20;0.10;;;;;;;;;;5043386;28;20449;-87
2024/02/03 12:52:14;;;;;;;0.20;0.10;;;;;;;;;;5065670;28;20315;-83
2024/02/03 12:54:40;;;;;;;0.20;0.00;;;;;;;;;;5049657;28;20053;-85
2024/02/03 12:57:09;;;;;;;0.20;0.00;;;;;;;;;;5064820;28;20029;-84
2024/02/03 12:59:35;;;;;;;0.20;0.00;;;;;;;;;;5048205;28;20136;-83
2024/02/03 13:02:01;;;;;;;0.20;0.00;;;;;;;;;;5048355;28;20061;-84
2024/02/03 13:04:29;;;;;;;0.20;0.00;;;;;;;;;;5048166;28;20083;-84
2024/02/03 13:06:55;;;;;;;0.20;0.00;;;;;;;;;;5049090;28;20063;-85
2024/02/03 13:09:22;;;;;;;0.20;0.10;;;;;;;;;;5063579;28;20044;-86
2024/02/03 13:11:51;;;;;;;0.20;0.10;;;;;;;;;;5044093;28;20528;-82
2024/02/03 13:14:17;;;;;;;5.68;1.65;;;;;;;;;;5031136;28;20363;-86
2024/02/03 13:16:43;;;;;;;0.20;0.00;;;;;;;;;;5046419;28;20063;-85
2024/02/03 13:19:12;;;;;;;0.25;0.17;;;;;;;;;;5047676;28;20120;-82
2024/02/03 13:21:38;;;;;;;0.20;0.05;;;;;;;;;;5064671;28;20349;-85
2024/02/03 13:24:04;;;;;;;0.20;0.00;;;;;;;;;;5044170;28;20048;-81
2024/02/03 13:26:30;;;;;;;0.20;0.10;;;;;;;;;;5047761;28;20049;-85
2024/02/03 13:28:56;;;;;;;0.20;0.03;;;;;;;;;;5045217;28;20045;-82
2024/02/03 13:31:23;;;;;;;0.20;0.00;;;;;;;;;;5049805;28;20122;-82
2024/02/03 13:33:50;;;;;;;0.20;0.10;;;;;;;;;;5046079;28;20798;-82
2024/02/03 13:36:16;;;;;;;0.20;0.10;;;;;;;;;;5066240;28;20114;-84
2024/02/03 13:38:48;;;;;;;0.20;0.10;;;;;;;;;;5045852;28;20429;-88
2024/02/03 13:41:20;;;;;;;0.20;0.08;;;;;;;;;;5061112;28;20365;-84
2024/02/03 13:43:46;;;;;;;0.20;0.00;;;;;;;;;;5063454;28;20052;-83
2024/02/03 13:46:12;;;;;;;0.45;0.45;;;;;;;;;;5045091;28;20037;-84
2024/02/03 13:48:38;;;;;;;0.20;0.00;;;;;;;;;;5044434;28;20055;-85
2024/02/03 13:51:05;;;;;;;0.20;0.10;;;;;;;;;;5027983;28;20036;-81
2024/02/03 13:53:34;;;;;;;0.20;0.10;;;;;;;;;;5058954;28;20052;-83
2024/02/03 13:56:05;;;;;;;0.20;0.10;;;;;;;;;;5062566;28;20056;-81
2024/02/03 13:58:31;;;;;;;0.20;0.00;;;;;;;;;;5047075;28;20416;-84
2024/02/03 14:00:57;;;;;;;0.20;0.00;;;;;;;;;;5041979;28;20043;-82
2024/02/03 14:03:26;;;;;;;0.20;0.10;;;;;;;;;;5048776;28;20043;-84
2024/02/03 14:05:52;;;;;;;0.73;0.63;;;;;;;;;;5046225;28;20060;-84
2024/02/03 14:08:18;;;;;;;0.20;0.00;;;;;;;;;;5032955;28;20056;-83
2024/02/03 14:10:47;;;;;;;0.20;0.00;;;;;;;;;;5064332;28;20029;-83
2024/02/03 14:13:13;;;;;;;0.20;0.10;;;;;;;;;;5049431;28;20408;-83
2024/02/03 14:15:39;;;;;;;0.20;0.10;;;;;;;;;;5062172;28;20049;-82
2024/02/03 14:18:08;;;;;;;0.22;0.15;;;;;;;;;;5047092;28;20092;-83
2024/02/03 14:20:37;;;;;;;0.85;0.80;;;;;;;;;;5063282;28;20458;-86
2024/02/03 14:23:16;;;;;;;0.20;0.10;;;;;;;;;;5043988;28;20055;-85
2024/02/03 14:25:42;;;;;;;0.20;0.00;;;;;;;;;;5039007;22;20476;-82
2024/02/03 14:28:08;;;;;;;0.25;0.15;;;;;;;;;;4970843;28;20038;-82
2024/02/03 14:30:34;;;;;;;0.20;0.10;;;;;;;;;;4987913;28;20120;-80
2024/02/03 14:33:03;;;;;;;0.20;0.00;;;;;;;;;;4998543;28;20042;-85
2024/02/03 14:35:29;;;;;;;0.20;0.05;;;;;;;;;;5009336;28;20038;-82
2024/02/03 14:37:55;;;;;;;0.20;0.10;;;;;;;;;;4998739;28;20512;-82
2024/02/03 14:40:21;;;;;;;0.20;0.10;;;;;;;;;;5001675;28;20038;-82
2024/02/03 14:42:47;;;;;;;0.40;0.40;;;;;;;;;;4990051;28;20105;-83
2024/02/03 14:45:14;;;;;;;0.20;0.00;;;;;;;;;;4991102;28;20038;-80
2024/02/03 14:47:40;;;;;;;0.40;0.32;;;;;;;;;;5011091;28;20053;-83